createdAt,value
2018-11-23T00:02:19.109Z,48.59
2018-11-23T00:04:49.478Z,48.35
2018-11-23T00:07:18.981Z,49.00
2018-11-23T00:10:08.049Z,48.89
2018-11-23T00:12:38.041Z,48.62
2018-11-23T00:15:26.590Z,48.27
2018-11-23T00:17:56.794Z,49.14
2018-11-23T00:20:45.319Z,49.25
2018-11-23T00:23:14.844Z,49.15
2018-11-23T00:25:44.384Z,48.84
2018-11-23T00:28:32.864Z,49.02
2018-11-23T00:31:02.966Z,50.29
2018-11-23T00:33:32.881Z,49.95
2018-11-23T00:36:02.701Z,50.29
2018-11-23T00:38:32.855Z,50.49
2018-11-23T00:41:02.822Z,50.21
2018-11-23T00:43:51.581Z,50.37
2018-11-23T00:46:40.375Z,49.99
2018-11-23T00:49:10.288Z,49.36
2018-11-23T00:51:39.922Z,49.43
2018-11-23T00:54:09.437Z,49.69
2018-11-23T00:56:38.942Z,48.66
2018-11-23T00:59:09.468Z,49.16
2018-11-23T01:01:57.626Z,49.27
2018-11-23T01:04:28.065Z,50.61
2018-11-23T01:07:16.570Z,51.90
2018-11-23T01:10:05.272Z,53.36
2018-11-23T01:12:54.693Z,52.13
2018-11-23T01:15:24.226Z,51.32
2018-11-23T01:18:13.024Z,52.10
2018-11-23T01:20:42.539Z,51.93
2018-11-23T01:23:31.131Z,51.12
2018-11-23T01:26:00.669Z,51.03
2018-11-23T01:28:41.696Z,50.46
2018-11-23T01:31:11.210Z,50.86
2018-11-23T01:33:40.774Z,50.65
2018-11-23T01:36:10.243Z,49.80
2018-11-23T01:38:59.030Z,49.62
2018-11-23T01:41:29.257Z,49.31
2018-11-23T01:43:59.596Z,49.09
2018-11-23T01:46:29.451Z,48.83
2018-11-23T01:48:59.063Z,49.07
2018-11-23T01:51:47.788Z,49.30
2018-11-23T01:54:17.339Z,49.44
2018-11-23T01:57:06.094Z,49.45
2018-11-23T01:59:35.698Z,49.18
2018-11-23T02:02:05.843Z,49.21
2018-11-23T02:04:35.668Z,48.88
2018-11-23T02:07:05.635Z,49.29
2018-11-23T02:09:35.785Z,49.21
2018-11-23T02:12:05.261Z,48.77
2018-11-23T02:14:34.830Z,49.13
2018-11-23T02:17:23.330Z,48.65
2018-11-23T02:19:54.828Z,49.42
2018-11-23T02:22:25.577Z,48.89
2018-11-23T02:24:55.510Z,48.65
2018-11-23T02:27:25.460Z,49.36
2018-11-23T02:29:55.265Z,49.29
2018-11-23T02:32:44.424Z,48.68
2018-11-23T02:35:33.252Z,48.56
2018-11-23T02:38:22.091Z,49.20
2018-11-23T02:41:10.882Z,48.87
2018-11-23T02:43:41.023Z,49.50
2018-11-23T02:46:10.895Z,49.27
2018-11-23T02:48:59.415Z,49.73
2018-11-23T02:51:29.713Z,50.02
2018-11-23T02:53:59.251Z,49.57
2018-11-23T02:56:48.113Z,49.22
2018-11-23T02:59:18.057Z,49.36
2018-11-23T03:01:47.573Z,49.74
2018-11-23T03:04:36.344Z,48.94
2018-11-23T03:07:06.426Z,48.34
2018-11-23T03:09:36.933Z,48.76
2018-11-23T03:12:25.678Z,49.11
2018-11-23T03:14:55.726Z,49.63
2018-11-23T03:17:45.073Z,49.25
2018-11-23T03:20:33.649Z,49.06
2018-11-23T03:23:03.430Z,49.11
2018-11-23T03:25:33.742Z,49.83
2018-11-23T03:28:03.244Z,49.53
2018-11-23T03:30:32.771Z,49.20
2018-11-23T03:33:02.626Z,50.80
2018-11-23T03:35:51.140Z,52.90
2018-11-23T03:38:39.382Z,54.01
2018-11-23T03:41:09.533Z,52.65
2018-11-23T03:43:39.128Z,51.14
2018-11-23T03:46:09.178Z,50.97
2018-11-23T03:48:38.650Z,51.75
2018-11-23T03:51:27.197Z,51.31
2018-11-23T03:54:16.306Z,50.09
2018-11-23T03:56:46.153Z,49.54
2018-11-23T03:59:34.490Z,49.50
2018-11-23T04:02:04.325Z,49.60
2018-11-23T04:07:28.369Z,49.59
2018-11-23T04:10:17.629Z,51.90
2018-11-23T04:13:06.733Z,50.91
2018-11-23T04:15:36.230Z,49.64
2018-11-23T04:18:05.764Z,49.38
2018-11-23T04:20:35.630Z,49.77
2018-11-23T04:23:05.119Z,51.11
2018-11-23T04:25:34.922Z,49.76
2018-11-23T04:28:23.468Z,49.62
2018-11-23T04:30:53.266Z,49.04
2018-11-23T04:33:23.061Z,49.30
2018-11-23T04:36:11.590Z,49.21
2018-11-23T04:38:41.704Z,48.86
2018-11-23T04:41:11.182Z,48.99
2018-11-23T04:43:59.989Z,49.23
2018-11-23T04:46:29.549Z,49.15
2018-11-23T04:49:18.052Z,49.16
2018-11-23T04:51:47.847Z,48.84
2018-11-23T04:54:17.344Z,48.78
2018-11-23T04:57:05.794Z,49.58
2018-11-23T04:59:35.988Z,50.33
2018-11-23T05:02:24.762Z,50.24
2018-11-23T05:05:13.818Z,49.89
2018-11-23T05:07:44.706Z,49.96
2018-11-23T05:10:15.713Z,50.54
2018-11-23T05:12:45.605Z,50.49
2018-11-23T05:15:34.107Z,50.31
2018-11-23T05:18:22.847Z,50.79
2018-11-23T05:20:52.683Z,50.04
2018-11-23T05:23:22.230Z,50.11
2018-11-23T05:25:51.755Z,49.29
2018-11-23T05:28:21.561Z,49.01
2018-11-23T05:30:51.352Z,48.69
2018-11-23T05:33:20.883Z,49.05
2018-11-23T05:36:10.624Z,49.44
2018-11-23T05:38:59.097Z,49.29
2018-11-23T05:41:48.069Z,50.17
2018-11-23T05:44:18.077Z,50.32
2018-11-23T05:47:07.050Z,49.96
2018-11-23T05:49:55.610Z,50.03
2018-11-23T05:52:44.777Z,49.40
2018-11-23T05:55:14.340Z,49.91
2018-11-23T05:57:44.470Z,50.17
2018-11-23T06:00:33.541Z,50.52
2018-11-23T06:03:22.005Z,50.30
2018-11-23T06:06:10.865Z,51.04
2018-11-23T06:08:40.799Z,50.29
2018-11-23T06:11:29.679Z,50.06
2018-11-23T06:14:18.526Z,49.39
2018-11-23T06:17:07.035Z,50.09
2018-11-23T06:19:56.093Z,49.74
2018-11-23T06:22:45.073Z,50.50
2018-11-23T06:25:52.495Z,49.51
2018-11-23T06:28:41.011Z,49.31
2018-11-23T06:31:10.577Z,49.32
2018-11-23T06:33:58.831Z,48.94
2018-11-23T06:36:47.918Z,48.58
2018-11-23T06:39:36.519Z,48.66
2018-11-23T06:42:06.460Z,48.50
2018-11-23T06:44:36.019Z,48.72
2018-11-23T06:47:05.573Z,49.35
2018-11-23T06:49:35.794Z,49.73
2018-11-23T06:52:05.302Z,48.91
2018-11-23T06:54:34.795Z,48.73
2018-11-23T06:57:23.559Z,49.04
2018-11-23T06:59:53.288Z,48.83
2018-11-23T07:02:23.221Z,47.82
2018-11-23T07:04:52.787Z,48.06
2018-11-23T07:07:22.346Z,48.15
2018-11-23T07:09:52.081Z,47.81
2018-11-23T07:12:41.111Z,47.66
2018-11-23T07:15:12.278Z,47.73
2018-11-23T07:18:00.802Z,47.59
2018-11-23T07:20:49.580Z,47.39
2018-11-23T07:23:38.069Z,48.29
2018-11-23T07:26:26.543Z,47.38
2018-11-23T07:28:56.369Z,48.34
2018-11-23T07:31:25.870Z,50.54
2018-11-23T07:33:55.715Z,53.19
2018-11-23T07:36:44.175Z,53.14
2018-11-23T07:39:51.609Z,53.25
2018-11-23T07:42:40.087Z,52.90
2018-11-23T07:45:28.745Z,50.48
2018-11-23T07:47:58.882Z,48.80
2018-11-23T07:50:47.302Z,48.25
2018-11-23T07:53:35.802Z,47.90
2018-11-23T07:56:05.383Z,46.66
2018-11-23T07:58:35.251Z,46.78
2018-11-23T08:01:05.196Z,46.78
2018-11-23T08:03:34.740Z,46.88
2018-11-23T08:06:04.531Z,48.15
2018-11-23T08:08:34.284Z,46.62
2018-11-23T08:11:07.515Z,45.84
2018-11-23T08:13:55.947Z,46.21
2018-11-23T08:16:44.378Z,45.31
2018-11-23T08:19:14.277Z,45.76
2018-11-23T08:22:02.814Z,45.53
2018-11-23T08:24:32.354Z,45.60
2018-11-23T08:27:01.815Z,44.25
2018-11-23T08:29:31.668Z,45.04
2018-11-23T08:32:01.265Z,45.62
2018-11-23T08:34:31.203Z,44.49
2018-11-23T08:37:20.356Z,44.87
2018-11-23T08:39:50.421Z,43.68
2018-11-23T08:42:20.914Z,44.24
2018-11-23T08:45:10.452Z,44.44
2018-11-23T08:47:41.684Z,43.16
2018-11-23T08:50:30.600Z,42.29
2018-11-23T08:53:00.507Z,43.05
2018-11-23T08:55:30.312Z,42.77
2018-11-23T08:58:00.409Z,42.46
2018-11-23T09:00:48.879Z,42.94
2018-11-23T09:03:18.674Z,44.14
2018-11-23T09:05:48.221Z,45.58
2018-11-23T09:08:18.787Z,44.64
2018-11-23T09:11:07.563Z,43.96
2018-11-23T09:13:37.774Z,45.84
2018-11-23T09:16:08.177Z,44.40
2018-11-23T09:18:56.651Z,45.60
2018-11-23T09:21:26.603Z,44.29
2018-11-23T09:23:56.393Z,44.52
2018-11-23T09:26:26.243Z,44.02
2018-11-23T09:29:14.734Z,44.17
2018-11-23T09:31:44.549Z,45.97
2018-11-23T09:34:14.088Z,45.54
2018-11-23T09:36:43.582Z,45.37
2018-11-23T09:39:13.129Z,43.99
2018-11-23T09:42:01.319Z,43.28
2018-11-23T09:44:31.227Z,44.32
2018-11-23T09:47:19.394Z,44.16
2018-11-23T09:50:07.963Z,43.55
2018-11-23T09:52:58.066Z,43.52
2018-11-23T09:55:29.096Z,42.78
2018-11-23T09:57:58.602Z,41.95
2018-11-23T10:00:47.383Z,42.36
2018-11-23T10:03:16.955Z,43.06
2018-11-23T10:05:46.504Z,40.98
2018-11-23T10:08:16.012Z,40.82
2018-11-23T10:10:45.523Z,41.58
2018-11-23T10:13:15.083Z,41.96
2018-11-23T10:16:03.649Z,40.78
2018-11-23T10:18:33.178Z,39.74
2018-11-23T10:21:21.357Z,40.80
2018-11-23T10:24:09.849Z,41.45
2018-11-23T10:26:39.491Z,41.54
2018-11-23T10:29:27.650Z,40.05
2018-11-23T10:32:16.178Z,40.09
2018-11-23T10:35:04.398Z,39.90
2018-11-23T10:37:54.323Z,38.68
2018-11-23T10:40:25.181Z,38.58
2018-11-23T10:42:54.717Z,38.55
2018-11-23T10:45:25.972Z,39.60
2018-11-23T10:47:56.640Z,38.74
2018-11-23T10:50:27.905Z,38.84
2018-11-23T10:52:57.406Z,38.51
2018-11-23T10:55:28.601Z,37.70
2018-11-23T10:57:58.466Z,38.30
2018-11-23T11:00:46.685Z,37.74
2018-11-23T11:03:34.884Z,37.78
2018-11-23T11:06:42.030Z,37.12
2018-11-23T11:09:11.942Z,37.65
2018-11-23T11:12:01.697Z,36.96
2018-11-23T11:14:31.812Z,37.52
2018-11-23T11:17:01.737Z,36.69
2018-11-23T11:19:50.143Z,36.69
2018-11-23T11:22:19.598Z,35.76
2018-11-23T11:24:49.482Z,35.35
2018-11-23T11:27:19.012Z,34.74
2018-11-23T11:29:48.577Z,35.09
2018-11-23T11:32:18.389Z,34.86
2018-11-23T11:34:48.284Z,35.28
2018-11-23T11:37:18.123Z,34.05
2018-11-23T11:39:47.638Z,32.83
2018-11-23T11:42:17.481Z,32.52
2018-11-23T11:45:06.871Z,31.35
2018-11-23T11:47:36.548Z,30.21
2018-11-23T11:50:08.233Z,28.66
2018-11-23T11:52:39.271Z,27.96
2018-11-23T11:55:10.879Z,26.98
2018-11-23T11:57:40.740Z,26.31
2018-11-23T12:00:12.993Z,24.97
2018-11-23T12:02:42.547Z,25.06
2018-11-23T12:05:12.995Z,25.21
2018-11-23T12:07:43.131Z,24.37
2018-11-23T12:10:15.549Z,23.88
2018-11-23T12:13:04.026Z,23.59
2018-11-23T12:15:34.332Z,24.44
2018-11-23T12:18:03.842Z,24.57
2018-11-23T12:20:52.291Z,23.92
2018-11-23T12:23:21.945Z,24.70
2018-11-23T12:26:10.489Z,25.08
2018-11-23T12:28:40.021Z,25.08
2018-11-23T12:31:10.117Z,24.17
2018-11-23T12:33:39.647Z,25.92
2018-11-23T12:36:09.185Z,25.84
2018-11-23T12:38:43.024Z,24.55
2018-11-23T12:41:08.547Z,24.52
2018-11-23T12:43:57.040Z,23.78
2018-11-23T12:46:26.814Z,23.78
2018-11-23T12:49:15.027Z,25.12
2018-11-23T12:52:03.497Z,24.74
2018-11-23T12:54:33.503Z,24.14
2018-11-23T12:57:22.595Z,21.95
2018-11-23T13:00:10.800Z,21.95
2018-11-23T13:02:40.958Z,22.31
2018-11-23T13:08:05.529Z,23.20
2018-11-23T13:10:35.753Z,23.56
2018-11-23T13:13:05.897Z,23.56
2018-11-23T13:15:54.676Z,24.62
2018-11-23T13:18:24.169Z,25.79
2018-11-23T13:20:53.741Z,27.38
2018-11-23T13:23:24.277Z,27.15
2018-11-23T13:25:53.803Z,28.16
2018-11-23T13:28:42.703Z,28.14
2018-11-23T13:31:31.159Z,28.82
2018-11-23T13:34:00.687Z,29.11
2018-11-23T13:36:30.552Z,32.73
2018-11-23T13:39:00.493Z,31.00
2018-11-23T13:41:30.011Z,31.99
2018-11-23T13:43:59.567Z,31.96
2018-11-23T13:46:29.095Z,32.09
2018-11-23T13:48:58.886Z,32.72
2018-11-23T13:51:48.495Z,32.47
2018-11-23T13:54:18.296Z,33.09
2018-11-23T13:56:48.312Z,33.62
2018-11-23T13:59:36.512Z,34.35
2018-11-23T14:02:25.588Z,33.71
2018-11-23T14:04:55.362Z,34.03
2018-11-23T14:07:25.901Z,33.60
2018-11-23T14:09:55.499Z,32.65
2018-11-23T14:12:44.325Z,32.60
2018-11-23T14:15:15.785Z,32.48
2018-11-23T14:18:04.022Z,33.93
2018-11-23T14:20:33.846Z,33.51
2018-11-23T14:23:22.327Z,33.73
2018-11-23T14:25:52.064Z,33.50
2018-11-23T14:28:22.569Z,33.84
2018-11-23T14:30:52.178Z,34.13
2018-11-23T14:33:22.097Z,34.40
2018-11-23T14:35:51.644Z,34.50
2018-11-23T14:38:21.517Z,34.50
2018-11-23T14:40:51.499Z,34.11
2018-11-23T14:43:21.061Z,34.77
2018-11-23T14:45:50.971Z,35.39
2018-11-23T14:48:39.471Z,35.71
2018-11-23T14:51:09.043Z,36.25
2018-11-23T14:53:57.505Z,35.67
2018-11-23T14:56:46.006Z,36.03
2018-11-23T14:59:15.915Z,36.11
2018-11-23T15:02:04.436Z,36.21
2018-11-23T15:04:34.358Z,36.46
2018-11-23T15:07:04.219Z,36.88
2018-11-23T15:09:33.764Z,36.72
2018-11-23T15:12:03.277Z,37.45
2018-11-23T15:14:51.769Z,37.56
2018-11-23T15:17:21.679Z,37.66
2018-11-23T15:19:51.263Z,38.01
2018-11-23T15:22:20.869Z,37.89
2018-11-23T15:24:50.469Z,37.96
2018-11-23T15:27:39.377Z,38.20
2018-11-23T15:30:32.275Z,38.71
2018-11-23T15:33:02.359Z,38.78
2018-11-23T15:35:33.091Z,38.89
2018-11-23T15:38:06.048Z,39.29
2018-11-23T15:40:33.190Z,39.56
2018-11-23T15:43:21.483Z,39.10
2018-11-23T15:45:51.586Z,39.59
2018-11-23T15:48:40.399Z,39.56
2018-11-23T15:51:10.956Z,39.87
2018-11-23T15:53:59.360Z,39.40
2018-11-23T15:56:47.879Z,39.87
2018-11-23T15:59:17.666Z,40.85
2018-11-23T16:01:47.223Z,40.27
2018-11-23T16:04:39.530Z,41.25
2018-11-23T16:07:05.316Z,40.65
2018-11-23T16:09:53.799Z,40.80
2018-11-23T16:12:23.703Z,40.92
2018-11-23T16:14:53.204Z,40.50
2018-11-23T16:17:22.843Z,40.50
2018-11-23T16:19:52.752Z,40.91
2018-11-23T16:25:20.107Z,40.47
2018-11-23T16:27:49.907Z,41.42
2018-11-23T16:30:22.270Z,41.43
2018-11-23T16:32:51.746Z,41.67
2018-11-23T16:35:21.554Z,41.44
2018-11-23T16:37:50.344Z,41.90
2018-11-23T16:40:21.141Z,41.35
2018-11-23T16:42:49.746Z,40.93
2018-11-23T16:45:21.601Z,40.50
2018-11-23T16:47:53.717Z,40.38
2018-11-23T16:50:22.380Z,40.10
2018-11-23T16:52:51.237Z,40.25
2018-11-23T16:55:20.805Z,40.59
2018-11-23T16:57:51.739Z,40.12
2018-11-23T17:08:52.112Z,39.91
2018-11-23T17:11:20.582Z,39.31
2018-11-23T17:13:49.410Z,40.34
2018-11-23T17:16:17.866Z,40.31
2018-11-23T17:18:46.228Z,40.49
2018-11-23T17:21:14.567Z,39.82
2018-11-23T17:23:42.855Z,40.79
2018-11-23T17:26:11.342Z,40.14
2018-11-23T17:28:39.751Z,40.17
2018-11-23T17:31:08.228Z,40.31
2018-11-23T17:33:36.783Z,40.89
2018-11-23T17:36:05.639Z,40.54
2018-11-23T17:38:37.729Z,40.52
2018-11-23T17:41:02.594Z,40.18
2018-11-23T17:43:31.129Z,40.46
2018-11-23T17:45:59.416Z,40.16
2018-11-23T17:48:28.436Z,40.16
2018-11-23T17:50:58.617Z,40.47
2018-11-23T17:53:36.046Z,40.31
2018-11-23T17:56:04.401Z,40.58
2018-11-23T17:58:32.767Z,39.94
2018-11-23T18:03:52.305Z,40.71
2018-11-23T18:06:20.791Z,40.89
2018-11-23T18:08:49.681Z,41.14
2018-11-23T18:11:18.064Z,40.40
2018-11-23T18:13:46.923Z,40.38
2018-11-23T18:16:15.634Z,41.13
2018-11-23T18:18:44.226Z,40.88
2018-11-23T18:21:12.725Z,41.00
2018-11-23T18:23:41.332Z,41.22
2018-11-23T18:26:09.791Z,40.84
2018-11-23T18:28:38.134Z,41.35
2018-11-23T18:31:07.396Z,40.91
2018-11-23T18:33:36.248Z,41.63
2018-11-23T18:36:06.494Z,42.26
2018-11-23T18:38:34.917Z,42.13
2018-11-23T18:41:03.438Z,41.68
2018-11-23T18:43:31.828Z,41.72
2018-11-23T18:46:00.302Z,41.64
2018-11-23T18:48:28.655Z,41.96
2018-11-23T18:50:56.985Z,42.18
2018-11-23T18:53:25.327Z,42.00
2018-11-23T18:55:53.702Z,42.23
2018-11-23T18:58:22.141Z,42.63
2018-11-23T19:00:50.474Z,42.54
2018-11-23T19:03:18.832Z,42.83
2018-11-23T19:05:47.163Z,42.39
2018-11-23T19:08:15.583Z,42.59
2018-11-23T19:10:44.012Z,42.66
2018-11-23T19:13:12.580Z,42.08
2018-11-23T19:15:41.930Z,42.13
2018-11-23T19:18:10.254Z,42.84
2018-11-23T19:20:38.574Z,42.42
2018-11-23T19:23:07.322Z,42.52
2018-11-23T19:25:35.681Z,42.24
2018-11-23T19:28:04.156Z,42.25
2018-11-23T19:30:32.489Z,41.93
2018-11-23T19:33:01.664Z,41.70
2018-11-23T19:35:29.519Z,42.19
2018-11-23T19:37:57.939Z,42.13
2018-11-23T19:40:26.366Z,41.72
2018-11-23T19:42:55.278Z,42.29
2018-11-23T19:45:24.187Z,42.23
2018-11-23T19:47:52.681Z,41.54
2018-11-23T19:50:21.339Z,42.09
2018-11-23T19:52:49.751Z,41.56
2018-11-23T19:55:18.558Z,42.07
2018-11-23T19:57:47.129Z,42.52
2018-11-23T20:00:19.772Z,41.77
2018-11-23T20:02:48.314Z,42.70
2018-11-23T20:05:16.692Z,41.92
2018-11-23T20:07:45.944Z,42.35
2018-11-23T20:10:15.648Z,42.28
2018-11-23T20:12:45.084Z,42.66
2018-11-23T20:16:45.519Z,42.19
2018-11-23T20:19:14.044Z,42.35
2018-11-23T20:21:42.389Z,42.13
2018-11-23T20:24:10.682Z,42.31
2018-11-23T20:26:39.311Z,42.12
2018-11-23T20:29:07.780Z,42.25
2018-11-23T20:31:36.209Z,42.09
2018-11-23T20:34:04.498Z,42.41
2018-11-23T20:36:32.835Z,42.51
2018-11-23T20:39:01.100Z,41.93
2018-11-23T20:41:29.857Z,42.26
2018-11-23T20:43:58.416Z,42.65
2018-11-23T20:46:27.249Z,42.47
2018-11-23T20:48:55.771Z,42.33
2018-11-23T20:51:24.202Z,42.01
2018-11-23T20:53:52.770Z,42.42
2018-11-23T20:56:21.102Z,42.50
2018-11-23T20:58:49.640Z,42.25
2018-11-23T21:01:17.996Z,42.41
2018-11-23T21:03:46.496Z,42.02
2018-11-23T21:13:09.799Z,42.27
2018-11-23T21:15:38.169Z,42.73
2018-11-23T21:18:07.216Z,42.25
2018-11-23T21:20:35.636Z,42.18
2018-11-23T21:23:04.194Z,43.12
2018-11-23T21:25:32.612Z,42.55
2018-11-23T21:28:01.150Z,42.38
2018-11-23T21:30:29.506Z,42.80
2018-11-23T21:34:01.208Z,42.97
2018-11-23T21:36:29.515Z,42.67
2018-11-23T21:38:57.992Z,43.21
2018-11-23T21:41:29.773Z,43.35
2018-11-23T21:43:54.626Z,42.88
2018-11-23T21:46:23.159Z,42.73
2018-11-23T21:48:51.662Z,42.55
2018-11-23T21:51:20.053Z,42.81
2018-11-23T21:53:48.576Z,43.02
2018-11-23T21:56:17.053Z,42.52
2018-11-23T21:58:45.390Z,43.99
2018-11-23T22:01:13.736Z,43.35
2018-11-23T22:03:42.013Z,44.04
2018-11-23T22:06:10.378Z,44.54
2018-11-23T22:08:38.693Z,46.35
2018-11-23T22:11:07.324Z,44.32
2018-11-23T22:13:35.970Z,44.35
2018-11-23T22:16:04.543Z,43.97
2018-11-23T22:18:33.004Z,44.82
2018-11-23T22:21:01.479Z,43.96
2018-11-23T22:23:30.090Z,45.52
2018-11-23T22:25:59.159Z,45.29
2018-11-23T22:28:27.615Z,44.92
2018-11-23T22:30:56.021Z,45.02
2018-11-23T22:33:24.339Z,45.46
2018-11-23T22:35:52.670Z,45.21
2018-11-23T22:38:21.102Z,45.92
2018-11-23T22:40:49.512Z,46.76
2018-11-23T22:43:17.973Z,48.06
2018-11-23T22:45:46.394Z,47.94
2018-11-23T22:48:15.000Z,48.52
2018-11-23T22:50:43.327Z,47.13
2018-11-23T22:53:11.762Z,46.09
2018-11-23T22:55:40.135Z,46.91
2018-11-23T22:58:08.454Z,46.79
2018-11-23T23:00:41.208Z,46.64
2018-11-23T23:03:10.320Z,46.01
2018-11-23T23:05:39.831Z,45.11
2018-11-23T23:08:07.024Z,45.77
2018-11-23T23:10:35.410Z,45.25
2018-11-23T23:13:03.869Z,45.06
2018-11-23T23:15:32.328Z,46.37
2018-11-23T23:18:00.694Z,46.23
2018-11-23T23:20:29.055Z,47.98
2018-11-23T23:22:58.924Z,47.25
2018-11-23T23:25:28.272Z,46.54
2018-11-23T23:27:56.958Z,45.70
2018-11-23T23:30:26.113Z,45.40
2018-11-23T23:32:54.551Z,45.19
2018-11-23T23:35:23.089Z,45.38
2018-11-23T23:37:51.451Z,45.15
2018-11-23T23:40:20.192Z,45.57
2018-11-23T23:42:49.409Z,44.65
2018-11-23T23:45:19.025Z,45.24
2018-11-23T23:47:49.633Z,44.68
2018-11-23T23:50:19.691Z,44.60
2018-11-23T23:52:49.006Z,43.87
2018-11-23T23:55:17.704Z,43.06
2018-11-23T23:57:47.618Z,43.99
